CheckWX is a tool to help pilots better visualize weather data.  It is not intended as a substitute for an official pre-flight weather briefing.

04:24:03 UTC

KFSW METAR
Fort Madison Municipal Airport
Fort Madison, Iowa, USA
Current

29 mins ago

KFSW 250355Z AUTO 17003KT 7SM CLR 12/11 A2986 RMK AO2
Observed
Apr-25 @ 03:55 UTC
Wind
  • 170° at 3 KTS
Visibility
7 SM
Flight Rules
VFR
Cloud Levels
  • Clear skies
Temperature
12°C / 54°F
Dewpoint
11°C / 52°F
Humidity
94%
Altimeter
29.86" Hg
Pressure
1011.22 hPa
Previous

49 mins ago

KFSW 250335Z AUTO 15004KT 10SM SCT032 12/11 A2986 RMK AO2
Observed
Apr-25 @ 03:35 UTC
Wind
  • 150° at 4 KTS
Visibility
10 SM
Flight Rules
VFR
Cloud Levels
  • Scattered at 3,200' AGL
Temperature
12°C / 54°F
Dewpoint
11°C / 52°F
Humidity
94%
Altimeter
29.86" Hg
Pressure
1011.22 hPa
Previous

1 hour ago

KFSW 250315Z AUTO 17005KT 10SM BKN032 12/11 A2987 RMK AO2
Observed
Apr-25 @ 03:15 UTC
Wind
  • 170° at 5 KTS
Visibility
10 SM
Flight Rules
VFR
Cloud Levels
  • Broken at 3,200' AGL
Temperature
12°C / 54°F
Dewpoint
11°C / 52°F
Humidity
94%
Altimeter
29.87" Hg
Pressure
1011.52 hPa